createdAt,value
2023-03-04T00:02:22.840Z,46.40
2023-03-04T00:04:51.225Z,46.90
2023-03-04T00:07:19.362Z,46.80
2023-03-04T00:09:47.208Z,47.20
2023-03-04T00:12:16.444Z,47.40
2023-03-04T00:14:43.503Z,47.50
2023-03-04T00:17:10.526Z,47.80
2023-03-04T00:19:37.476Z,47.90
2023-03-04T00:22:04.998Z,47.50
2023-03-04T00:24:32.619Z,47.30
2023-03-04T00:26:59.913Z,47.80
2023-03-04T00:29:27.419Z,48.30
2023-03-04T00:31:54.571Z,48.30
2023-03-04T00:34:22.523Z,49.00
2023-03-04T00:36:50.034Z,49.40
2023-03-04T00:39:17.733Z,49.00
2023-03-04T00:41:44.845Z,47.80
2023-03-04T00:44:12.832Z,47.60
2023-03-04T00:46:40.232Z,47.40
2023-03-04T00:49:07.229Z,47.30
2023-03-04T00:51:34.703Z,47.10
2023-03-04T00:54:01.665Z,46.80
2023-03-04T00:56:29.013Z,47.20
2023-03-04T00:58:56.378Z,47.70
2023-03-04T01:01:23.847Z,48.20
2023-03-04T01:03:52.042Z,48.60
2023-03-04T01:06:19.207Z,49.10
2023-03-04T01:08:46.185Z,49.60
2023-03-04T01:11:14.148Z,50.00
2023-03-04T01:13:42.354Z,49.10
2023-03-04T01:16:11.070Z,48.80
2023-03-04T01:18:38.113Z,49.20
2023-03-04T01:21:06.051Z,49.10
2023-03-04T01:23:33.017Z,49.50
2023-03-04T01:26:00.101Z,49.90
2023-03-04T01:28:27.053Z,50.30
2023-03-04T01:30:54.039Z,50.10
2023-03-04T01:33:21.466Z,50.50
2023-03-04T01:35:48.502Z,50.70
2023-03-04T01:38:15.685Z,51.00
2023-03-04T01:40:42.753Z,50.80
2023-03-04T01:43:20.097Z,50.50
2023-03-04T01:45:49.020Z,50.50
2023-03-04T01:48:19.380Z,49.60
2023-03-04T01:50:46.603Z,49.60
2023-03-04T01:53:25.020Z,49.60
2023-03-04T01:56:05.715Z,50.00
2023-03-04T01:58:33.401Z,50.30
2023-03-04T02:01:00.341Z,51.30
2023-03-04T02:03:27.828Z,51.10
2023-03-04T02:05:56.273Z,51.00
2023-03-04T02:08:24.919Z,51.30
2023-03-04T02:10:52.307Z,51.50
2023-03-04T02:13:19.920Z,51.30
2023-03-04T02:15:47.175Z,51.40
2023-03-04T02:18:21.088Z,51.40
2023-03-04T02:21:13.890Z,51.70
2023-03-04T02:23:55.307Z,52.20
2023-03-04T02:26:25.049Z,52.10
2023-03-04T02:28:55.508Z,52.10
2023-03-04T02:31:33.230Z,52.80
2023-03-04T02:34:06.519Z,53.10
2023-03-04T02:36:35.096Z,53.00
2023-03-04T02:39:07.305Z,52.90
2023-03-04T02:41:34.959Z,52.90
2023-03-04T02:44:02.117Z,52.90
2023-03-04T02:46:30.326Z,52.90
2023-03-04T02:48:57.415Z,53.10
2023-03-04T02:51:24.790Z,53.30
2023-03-04T02:53:51.777Z,53.40
2023-03-04T02:56:18.884Z,53.50
2023-03-04T02:58:45.864Z,53.60
2023-03-04T03:01:13.031Z,53.60
2023-03-04T03:03:40.501Z,53.60
2023-03-04T03:06:07.703Z,51.90
2023-03-04T03:08:35.092Z,51.70
2023-03-04T03:11:02.317Z,51.30
2023-03-04T03:13:31.767Z,50.90
2023-03-04T03:15:58.750Z,51.00
2023-03-04T03:18:25.932Z,51.10
2023-03-04T03:20:53.103Z,51.10
2023-03-04T03:23:21.026Z,51.40
2023-03-04T03:25:47.969Z,51.50
2023-03-04T03:28:14.962Z,51.30
2023-03-04T03:30:41.992Z,51.60
2023-03-04T03:33:08.960Z,51.50
2023-03-04T03:35:37.119Z,51.20
2023-03-04T03:38:04.250Z,51.00
2023-03-04T03:40:31.167Z,51.30
2023-03-04T03:42:58.548Z,51.40
2023-03-04T03:45:25.742Z,51.70
2023-03-04T03:47:53.694Z,51.90
2023-03-04T03:50:20.709Z,52.20
2023-03-04T03:52:49.497Z,52.30
2023-03-04T03:55:16.801Z,52.40
2023-03-04T03:57:43.770Z,52.80
2023-03-04T04:00:11.881Z,52.80
2023-03-04T04:02:42.074Z,52.50
2023-03-04T04:05:10.237Z,52.30
2023-03-04T04:07:37.827Z,52.30
2023-03-04T04:10:05.861Z,52.80
2023-03-04T04:12:32.897Z,53.00
2023-03-04T04:15:00.046Z,53.10
2023-03-04T04:17:27.034Z,53.10
2023-03-04T04:19:54.001Z,52.60
2023-03-04T04:22:21.518Z,51.70
2023-03-04T04:24:49.103Z,51.80
2023-03-04T04:27:16.111Z,52.00
2023-03-04T04:29:43.074Z,52.10
2023-03-04T04:32:13.153Z,51.80
2023-03-04T04:34:40.349Z,51.60
2023-03-04T04:37:07.415Z,51.50
2023-03-04T04:39:34.353Z,51.30
2023-03-04T04:42:01.323Z,51.50
2023-03-04T04:44:28.324Z,51.70
2023-03-04T04:46:55.312Z,52.60
2023-03-04T04:49:22.213Z,51.70
2023-03-04T04:51:49.228Z,51.70
2023-03-04T04:54:16.196Z,51.30
2023-03-04T04:56:43.151Z,51.50
2023-03-04T04:59:11.308Z,51.50
2023-03-04T05:01:38.518Z,51.40
2023-03-04T05:04:05.764Z,51.40
2023-03-04T05:06:33.098Z,51.40
2023-03-04T05:09:00.179Z,51.60
2023-03-04T05:11:27.182Z,51.80
2023-03-04T05:13:54.136Z,51.80
2023-03-04T05:16:21.195Z,52.00
2023-03-04T05:18:48.217Z,52.00
2023-03-04T05:21:15.495Z,51.40
2023-03-04T05:23:44.166Z,51.70
2023-03-04T05:26:15.329Z,51.50
2023-03-04T05:28:43.229Z,51.30
2023-03-04T05:31:10.175Z,51.40
2023-03-04T05:33:37.553Z,51.80
2023-03-04T05:36:06.324Z,52.00
2023-03-04T05:38:34.108Z,52.20
2023-03-04T05:41:08.293Z,52.10
2023-03-04T05:43:36.482Z,52.10
2023-03-04T05:46:04.810Z,52.60
2023-03-04T05:48:32.079Z,52.80
2023-03-04T05:51:01.771Z,52.80
2023-03-04T05:53:29.673Z,53.10
2023-03-04T05:55:56.635Z,53.80
2023-03-04T05:58:23.661Z,54.20
2023-03-04T06:00:50.709Z,54.90
2023-03-04T06:03:20.806Z,55.60
2023-03-04T06:05:48.259Z,56.10
2023-03-04T06:08:15.350Z,56.70
2023-03-04T06:10:42.427Z,57.60
2023-03-04T06:13:10.100Z,58.60
2023-03-04T06:15:37.550Z,59.20
2023-03-04T06:18:04.604Z,59.30
2023-03-04T06:20:31.751Z,59.80
2023-03-04T06:22:58.655Z,59.90
2023-03-04T06:25:34.242Z,59.80
2023-03-04T06:31:05.873Z,60.30
2023-03-04T06:33:40.406Z,60.10
2023-03-04T06:36:07.917Z,60.30
2023-03-04T06:38:35.241Z,60.80
2023-03-04T06:41:12.626Z,61.40
2023-03-04T06:43:40.436Z,61.20
2023-03-04T06:46:08.847Z,61.40
2023-03-04T06:48:36.496Z,61.40
2023-03-04T06:51:11.783Z,61.80
2023-03-04T06:53:40.044Z,62.30
2023-03-04T06:56:08.731Z,62.20
2023-03-04T06:58:35.940Z,62.80
2023-03-04T07:01:18.816Z,62.90
2023-03-04T07:03:46.303Z,63.50
2023-03-04T07:06:15.680Z,63.80
2023-03-04T07:08:43.314Z,64.20
2023-03-04T07:11:10.850Z,64.60
2023-03-04T07:13:40.941Z,64.60
2023-03-04T07:16:11.116Z,65.00
2023-03-04T07:18:38.654Z,64.50
2023-03-04T07:21:07.310Z,63.50
2023-03-04T07:23:35.289Z,64.50
2023-03-04T07:26:02.817Z,64.70
2023-03-04T07:28:29.764Z,64.80
2023-03-04T07:30:56.821Z,64.00
2023-03-04T07:33:23.818Z,64.30
2023-03-04T07:35:59.640Z,64.00
2023-03-04T07:38:26.588Z,63.70
2023-03-04T07:40:58.166Z,63.70
2023-03-04T07:43:25.365Z,64.70
2023-03-04T07:45:52.564Z,65.00
2023-03-04T07:48:20.773Z,64.50
2023-03-04T07:50:47.863Z,64.70
2023-03-04T07:53:14.804Z,65.00
2023-03-04T07:55:41.833Z,65.20
2023-03-04T07:58:08.772Z,65.90
2023-03-04T08:00:35.779Z,66.00
2023-03-04T08:03:02.718Z,67.80
2023-03-04T08:05:29.815Z,65.80
2023-03-04T08:07:58.193Z,65.90
2023-03-04T08:10:25.372Z,67.10
2023-03-04T08:12:52.536Z,66.60
2023-03-04T08:15:19.689Z,67.40
2023-03-04T08:17:49.186Z,67.20
2023-03-04T08:20:16.559Z,65.80
2023-03-04T08:22:43.570Z,65.20
2023-03-04T08:25:11.495Z,64.80
2023-03-04T08:27:38.656Z,65.10
2023-03-04T08:30:08.019Z,64.60
2023-03-04T08:32:35.252Z,64.80
2023-03-04T08:35:02.568Z,63.60
2023-03-04T08:37:32.296Z,63.60
2023-03-04T08:39:59.855Z,63.00
2023-03-04T08:42:27.144Z,63.10
2023-03-04T08:44:54.055Z,63.30
2023-03-04T08:47:21.097Z,63.80
2023-03-04T08:49:48.668Z,63.30
2023-03-04T08:52:15.772Z,63.00
2023-03-04T08:54:42.780Z,62.90
2023-03-04T08:57:12.205Z,64.10
2023-03-04T08:59:39.209Z,63.90
2023-03-04T09:02:06.561Z,63.70
2023-03-04T09:04:33.802Z,61.60
2023-03-04T09:07:00.851Z,61.70
2023-03-04T09:09:27.859Z,61.10
2023-03-04T09:11:54.889Z,59.70
2023-03-04T09:14:21.864Z,60.50
2023-03-04T09:16:49.429Z,59.60
2023-03-04T09:19:16.554Z,58.00
2023-03-04T09:21:43.577Z,58.70
2023-03-04T09:24:10.613Z,58.20
2023-03-04T09:26:38.102Z,57.30
2023-03-04T09:29:05.506Z,57.60
2023-03-04T09:31:35.364Z,56.90
2023-03-04T09:34:02.980Z,58.00
2023-03-04T09:36:30.030Z,56.70
2023-03-04T09:39:03.496Z,56.30
2023-03-04T09:41:45.960Z,56.80
2023-03-04T09:44:21.432Z,56.70
2023-03-04T09:46:49.721Z,57.20
2023-03-04T09:49:18.111Z,57.50
2023-03-04T09:52:05.510Z,58.30
2023-03-04T09:55:05.291Z,58.30
2023-03-04T09:57:41.636Z,57.50
2023-03-04T10:00:19.848Z,56.70
2023-03-04T10:02:52.758Z,57.40
2023-03-04T10:05:25.547Z,58.00
2023-03-04T10:08:02.010Z,58.20
2023-03-04T10:10:40.559Z,59.10
2023-03-04T10:13:15.524Z,62.00
2023-03-04T10:15:53.922Z,66.00
2023-03-04T10:18:20.867Z,68.10
2023-03-04T10:20:55.717Z,66.20
2023-03-04T10:23:26.097Z,65.70
2023-03-04T10:25:54.485Z,66.30
2023-03-04T10:28:27.275Z,66.00
2023-03-04T10:30:59.716Z,65.50
2023-03-04T10:33:32.514Z,63.10
2023-03-04T10:36:25.696Z,62.00
2023-03-04T10:39:07.594Z,61.10
2023-03-04T10:41:34.670Z,60.30
2023-03-04T10:44:09.488Z,60.30
2023-03-04T10:46:45.074Z,60.40
2023-03-04T10:49:15.184Z,59.70
2023-03-04T10:51:51.890Z,58.30
2023-03-04T10:54:29.060Z,57.90
2023-03-04T10:56:58.164Z,57.00
2023-03-04T10:59:40.200Z,55.20
2023-03-04T11:02:28.282Z,56.20
2023-03-04T11:05:10.533Z,56.10
2023-03-04T11:07:54.587Z,56.90
2023-03-04T11:10:31.474Z,56.60
2023-03-04T11:13:07.474Z,58.00
2023-03-04T11:16:05.872Z,58.80
2023-03-04T11:19:11.346Z,60.30
2023-03-04T11:21:41.227Z,62.80
2023-03-04T11:24:29.078Z,64.10
2023-03-04T11:27:21.209Z,64.80
2023-03-04T11:30:17.267Z,64.80
2023-03-04T11:32:49.879Z,64.70
2023-03-04T11:35:51.038Z,63.40
2023-03-04T11:38:26.665Z,61.90
2023-03-04T11:41:28.720Z,63.80
2023-03-04T11:43:56.150Z,63.40
2023-03-04T11:46:36.767Z,65.90
2023-03-04T11:49:23.056Z,68.50
2023-03-04T11:51:56.488Z,71.60
2023-03-04T11:54:38.256Z,73.10
2023-03-04T11:57:24.200Z,70.10
2023-03-04T11:59:56.379Z,66.90
2023-03-04T12:02:37.655Z,69.00
2023-03-04T12:05:21.907Z,68.40
2023-03-04T12:08:12.724Z,69.80
2023-03-04T12:10:42.803Z,68.00
2023-03-04T12:13:31.447Z,67.10
2023-03-04T12:16:28.761Z,67.20
2023-03-04T12:19:34.972Z,63.50
2023-03-04T12:22:26.676Z,64.60
2023-03-04T12:25:09.342Z,62.20
2023-03-04T12:27:48.243Z,63.70
2023-03-04T12:30:44.415Z,65.00
2023-03-04T12:33:34.398Z,64.60
2023-03-04T12:36:17.009Z,62.00
2023-03-04T12:38:53.078Z,60.80
2023-03-04T12:41:41.869Z,59.30
2023-03-04T12:44:20.254Z,58.90
2023-03-04T12:47:17.715Z,57.50
2023-03-04T12:50:12.390Z,56.60
2023-03-04T12:53:14.612Z,56.40
2023-03-04T12:55:43.272Z,56.80
2023-03-04T12:58:23.713Z,57.20
2023-03-04T13:00:56.407Z,57.10
2023-03-04T13:03:46.844Z,57.20
2023-03-04T13:06:46.084Z,57.30
2023-03-04T13:09:15.872Z,58.30
2023-03-04T13:11:52.773Z,59.30
2023-03-04T13:14:25.687Z,58.40
2023-03-04T13:17:23.055Z,57.20
2023-03-04T13:19:58.628Z,56.90
2023-03-04T13:22:45.087Z,56.70
2023-03-04T13:25:31.769Z,58.10
2023-03-04T13:28:13.872Z,58.20
2023-03-04T13:31:03.039Z,58.50
2023-03-04T13:33:36.012Z,59.50
2023-03-04T13:36:26.053Z,57.70
2023-03-04T13:39:24.368Z,56.30
2023-03-04T13:41:53.903Z,54.00
2023-03-04T13:44:44.895Z,54.90
2023-03-04T13:47:21.465Z,55.60
2023-03-04T13:49:48.990Z,55.60
2023-03-04T13:52:40.177Z,55.90
2023-03-04T13:55:39.848Z,57.00
2023-03-04T13:58:26.136Z,58.80
2023-03-04T14:00:56.016Z,61.40
2023-03-04T14:03:29.236Z,66.90
2023-03-04T14:06:14.317Z,70.70
2023-03-04T14:08:41.315Z,72.00
2023-03-04T14:11:14.816Z,74.10
2023-03-04T14:13:42.295Z,77.00
2023-03-04T14:16:09.945Z,81.50
2023-03-04T14:18:38.520Z,84.60
2023-03-04T14:21:07.238Z,86.40
2023-03-04T14:23:36.486Z,88.60
2023-03-04T14:26:10.198Z,88.50
2023-03-04T14:28:49.303Z,87.60
2023-03-04T14:31:19.462Z,87.10
2023-03-04T14:33:50.014Z,87.30
2023-03-04T14:36:23.633Z,86.90
2023-03-04T14:39:15.449Z,85.40
2023-03-04T14:41:44.057Z,85.10
2023-03-04T14:44:38.179Z,83.00
2023-03-04T14:47:14.257Z,82.60
2023-03-04T14:49:41.322Z,80.20
2023-03-04T14:52:31.202Z,78.80
2023-03-04T14:55:22.944Z,76.20
2023-03-04T14:57:58.351Z,74.00
2023-03-04T15:00:32.509Z,74.00
2023-03-04T15:03:03.031Z,73.30
2023-03-04T15:05:33.136Z,73.30
2023-03-04T15:08:06.870Z,73.00
2023-03-04T15:10:38.492Z,68.00
2023-03-04T15:13:08.905Z,65.00
2023-03-04T15:15:43.063Z,64.80
2023-03-04T15:18:22.997Z,64.50
2023-03-04T15:21:23.275Z,61.90
2023-03-04T15:23:50.306Z,59.50
2023-03-04T15:26:17.505Z,52.80
2023-03-04T15:28:44.764Z,49.10
2023-03-04T15:31:20.386Z,45.20
2023-03-04T15:33:47.622Z,47.20
2023-03-04T15:36:17.257Z,45.20
2023-03-04T15:38:47.802Z,46.30
2023-03-04T15:41:27.007Z,46.50
2023-03-04T15:43:54.858Z,44.20
2023-03-04T15:46:22.172Z,42.50
2023-03-04T15:48:49.759Z,43.00
2023-03-04T15:51:22.406Z,42.80
2023-03-04T15:53:57.622Z,44.20
2023-03-04T15:56:27.283Z,44.80
2023-03-04T15:58:56.701Z,44.10
2023-03-04T16:01:24.999Z,45.60
2023-03-04T16:03:53.772Z,43.70
2023-03-04T16:06:24.591Z,43.30
2023-03-04T16:08:52.349Z,43.60
2023-03-04T16:11:28.725Z,44.10
2023-03-04T16:13:56.810Z,45.60
2023-03-04T16:16:23.820Z,47.40
2023-03-04T16:18:50.800Z,51.30
2023-03-04T16:21:20.290Z,53.30
2023-03-04T16:23:48.903Z,54.80
2023-03-04T16:26:24.093Z,55.90
2023-03-04T16:28:52.097Z,57.20
2023-03-04T16:31:20.966Z,57.80
2023-03-04T16:33:48.302Z,57.90
2023-03-04T16:36:19.516Z,57.40
2023-03-04T16:38:48.654Z,57.10
2023-03-04T16:41:17.269Z,57.80
2023-03-04T16:43:44.607Z,58.50
2023-03-04T16:46:13.068Z,58.90
2023-03-04T16:48:40.936Z,59.40
2023-03-04T16:51:36.120Z,59.60
2023-03-04T16:54:04.296Z,58.80
2023-03-04T16:56:31.185Z,58.70
2023-03-04T16:59:00.201Z,57.40
2023-03-04T17:01:29.150Z,57.40
2023-03-04T17:03:56.712Z,57.30
2023-03-04T17:06:24.731Z,56.60
2023-03-04T17:08:52.143Z,56.80
2023-03-04T17:11:21.741Z,57.40
2023-03-04T17:13:48.866Z,57.10
2023-03-04T17:16:16.164Z,56.90
2023-03-04T17:18:51.051Z,57.40
2023-03-04T17:21:21.168Z,57.30
2023-03-04T17:23:48.136Z,57.30
2023-03-04T17:26:16.717Z,57.50
2023-03-04T17:28:43.923Z,57.70
2023-03-04T17:31:16.734Z,57.60
2023-03-04T17:33:44.713Z,58.40
2023-03-04T17:36:13.383Z,58.70
2023-03-04T17:38:40.740Z,59.20
2023-03-04T17:41:13.378Z,59.20
2023-03-04T17:43:45.484Z,60.50
2023-03-04T17:46:14.515Z,59.90
2023-03-04T17:48:42.166Z,60.20
2023-03-04T17:51:10.192Z,61.10
2023-03-04T17:53:37.702Z,60.90
2023-03-04T17:56:07.098Z,61.40
2023-03-04T17:58:36.302Z,61.00
2023-03-04T18:01:06.375Z,60.40
2023-03-04T18:03:34.059Z,60.20
2023-03-04T18:06:01.073Z,59.90
2023-03-04T18:08:29.993Z,59.20
2023-03-04T18:11:00.966Z,58.50
2023-03-04T18:13:29.391Z,55.90
2023-03-04T18:16:00.062Z,55.40
2023-03-04T18:18:28.127Z,54.70
2023-03-04T18:21:00.823Z,54.80
2023-03-04T18:23:28.565Z,54.70
2023-03-04T18:25:56.050Z,54.50
2023-03-04T18:28:24.174Z,54.20
2023-03-04T18:30:52.369Z,54.00
2023-03-04T18:33:20.508Z,53.70
2023-03-04T18:35:49.486Z,54.10
2023-03-04T18:38:16.991Z,54.70
2023-03-04T18:40:45.481Z,54.60
2023-03-04T18:43:12.581Z,54.30
2023-03-04T18:45:40.588Z,53.90
2023-03-04T18:48:08.357Z,54.10
2023-03-04T18:50:35.538Z,54.40
2023-03-04T18:53:02.854Z,54.40
2023-03-04T18:55:32.562Z,55.30
2023-03-04T18:58:10.355Z,55.00
2023-03-04T19:00:37.567Z,55.50
2023-03-04T19:03:08.859Z,56.60
2023-03-04T19:05:36.333Z,57.10
2023-03-04T19:08:07.340Z,57.60
2023-03-04T19:10:35.527Z,57.90
2023-03-04T19:13:04.312Z,58.10
2023-03-04T19:15:34.571Z,58.10
2023-03-04T19:18:05.579Z,58.40
2023-03-04T19:20:32.697Z,58.90
2023-03-04T19:23:02.164Z,58.90
2023-03-04T19:25:29.425Z,59.00
2023-03-04T19:27:58.051Z,59.10
2023-03-04T19:30:25.227Z,59.10
2023-03-04T19:32:52.307Z,59.50
2023-03-04T19:35:20.429Z,59.80
2023-03-04T19:37:48.071Z,59.80
2023-03-04T19:40:17.765Z,59.60
2023-03-04T19:42:45.078Z,59.60
2023-03-04T19:45:12.374Z,59.50
2023-03-04T19:47:40.135Z,59.30
2023-03-04T19:50:10.533Z,59.30
2023-03-04T19:52:40.788Z,59.40
2023-03-04T19:55:13.130Z,59.40
2023-03-04T19:57:49.892Z,58.60
2023-03-04T20:00:18.428Z,58.10
2023-03-04T20:02:48.179Z,57.60
2023-03-04T20:05:15.701Z,57.30
2023-03-04T20:07:44.120Z,57.10
2023-03-04T20:10:14.654Z,57.00
2023-03-04T20:12:41.816Z,57.40
2023-03-04T20:15:13.140Z,57.10
2023-03-04T20:17:41.744Z,57.60
2023-03-04T20:20:12.095Z,57.90
2023-03-04T20:22:39.286Z,57.60
2023-03-04T20:25:06.575Z,56.60
2023-03-04T20:27:33.835Z,56.30
2023-03-04T20:30:04.005Z,55.10
2023-03-04T20:32:31.374Z,54.50
2023-03-04T20:34:58.550Z,51.70
2023-03-04T20:37:25.816Z,51.20
2023-03-04T20:39:52.956Z,49.50
2023-03-04T20:42:20.292Z,49.60
2023-03-04T20:44:50.216Z,48.70
2023-03-04T20:47:21.935Z,49.30
2023-03-04T20:49:49.029Z,49.50
2023-03-04T20:52:16.752Z,50.10
2023-03-04T20:54:44.004Z,50.90
2023-03-04T20:57:12.110Z,50.80
2023-03-04T20:59:40.135Z,51.60
2023-03-04T21:02:12.638Z,51.80
2023-03-04T21:04:41.793Z,51.80
2023-03-04T21:07:10.127Z,51.80
2023-03-04T21:09:37.742Z,52.30
2023-03-04T21:12:08.300Z,52.80
2023-03-04T21:14:37.924Z,52.70
2023-03-04T21:17:05.412Z,52.70
2023-03-04T21:19:37.001Z,52.80
2023-03-04T21:22:04.627Z,53.00
2023-03-04T21:24:33.957Z,53.10
2023-03-04T21:27:01.803Z,53.30
2023-03-04T21:29:32.949Z,54.00
2023-03-04T21:32:22.355Z,53.50
2023-03-04T21:34:52.176Z,53.50
2023-03-04T21:37:24.162Z,53.80
2023-03-04T21:39:51.901Z,54.00
2023-03-04T21:42:21.844Z,54.30
2023-03-04T21:44:50.893Z,54.70
2023-03-04T21:47:21.052Z,55.20
2023-03-04T21:49:48.988Z,55.20
2023-03-04T21:52:23.423Z,56.10
2023-03-04T21:54:50.785Z,56.10
2023-03-04T21:57:18.701Z,56.50
2023-03-04T21:59:45.971Z,56.90
2023-03-04T22:02:17.844Z,57.30
2023-03-04T22:04:46.492Z,58.10
2023-03-04T22:07:15.310Z,58.30
2023-03-04T22:09:42.628Z,58.20
2023-03-04T22:12:09.837Z,58.80
2023-03-04T22:14:37.079Z,59.30
2023-03-04T22:17:04.527Z,59.30
2023-03-04T22:19:33.037Z,59.60
2023-03-04T22:22:03.117Z,59.90
2023-03-04T22:24:30.547Z,60.40
2023-03-04T22:27:04.901Z,60.40
2023-03-04T22:29:32.225Z,61.40
2023-03-04T22:31:59.937Z,61.20
2023-03-04T22:34:27.168Z,61.20
2023-03-04T22:36:55.190Z,61.60
2023-03-04T22:39:23.407Z,61.70
2023-03-04T22:41:50.615Z,62.30
2023-03-04T22:44:18.137Z,62.90
2023-03-04T22:46:45.308Z,62.90
2023-03-04T22:49:16.442Z,63.20
2023-03-04T22:51:44.965Z,63.00
2023-03-04T22:54:16.400Z,63.00
2023-03-04T22:56:44.426Z,63.30
2023-03-04T22:59:12.203Z,63.30
2023-03-04T23:01:39.437Z,63.70
2023-03-04T23:04:06.514Z,63.90
2023-03-04T23:06:33.646Z,64.10
2023-03-04T23:09:00.897Z,64.00
2023-03-04T23:11:35.555Z,64.40
2023-03-04T23:14:07.019Z,65.00
2023-03-04T23:16:37.480Z,65.80
2023-03-04T23:19:05.844Z,66.10
2023-03-04T23:21:34.049Z,66.30
2023-03-04T23:24:02.656Z,67.00
2023-03-04T23:26:33.074Z,66.80
2023-03-04T23:29:01.680Z,66.80
2023-03-04T23:31:29.724Z,66.90
2023-03-04T23:33:57.600Z,66.60
2023-03-04T23:36:27.705Z,66.60
2023-03-04T23:38:55.297Z,66.80
2023-03-04T23:41:25.748Z,66.00
2023-03-04T23:43:55.304Z,66.70
2023-03-04T23:46:24.215Z,66.30
2023-03-04T23:48:51.237Z,66.10
2023-03-04T23:51:21.074Z,66.00
2023-03-04T23:53:48.884Z,66.60
2023-03-04T23:56:22.080Z,66.60
2023-03-04T23:58:49.742Z,65.50
